createdAt,value
2022-07-29T00:02:17.280Z,101714.16
2022-07-29T00:04:46.690Z,101714.16
2022-07-29T00:07:14.676Z,101705.13
2022-07-29T00:09:51.881Z,101698.88
2022-07-29T00:12:21.388Z,101699.75
2022-07-29T00:14:55.495Z,101703.28
2022-07-29T00:17:23.708Z,101692.53
2022-07-29T00:19:53.340Z,101699.75
2022-07-29T00:22:21.582Z,101694.38
2022-07-29T00:24:50.133Z,101689.16
2022-07-29T00:27:19.990Z,101681.97
2022-07-29T00:29:47.905Z,101681.09
2022-07-29T00:32:15.814Z,101689.16
2022-07-29T00:35:01.415Z,101676.69
2022-07-29T00:37:30.807Z,101671.31
2022-07-29T00:39:58.771Z,101680.25
2022-07-29T00:42:26.722Z,101674.06
2022-07-29T00:44:54.706Z,101675.84
2022-07-29T00:47:22.606Z,101668.69
2022-07-29T00:49:50.585Z,101671.38
2022-07-29T00:52:18.534Z,101668.69
2022-07-29T00:54:47.925Z,101662.47
2022-07-29T00:57:15.837Z,101660.75
2022-07-29T00:59:43.814Z,101669.66
2022-07-29T01:02:11.812Z,101660.75
2022-07-29T01:04:39.887Z,101656.22
2022-07-29T01:07:08.747Z,101661.59
2022-07-29T01:09:45.912Z,101663.44
2022-07-29T01:12:19.371Z,101660.75
2022-07-29T01:14:49.245Z,101659.88
2022-07-29T01:17:23.306Z,101664.41
2022-07-29T01:19:58.626Z,101663.53
2022-07-29T01:22:51.721Z,101660.84
2022-07-29T01:25:45.023Z,101657.31
2022-07-29T01:28:40.344Z,101650.09
2022-07-29T01:31:18.342Z,101651.94
2022-07-29T01:33:59.669Z,101655.47
2022-07-29T01:36:33.449Z,101654.63
2022-07-29T01:39:07.362Z,101651.94
2022-07-29T01:41:38.323Z,101657.31
2022-07-29T01:44:15.100Z,101657.31
2022-07-29T01:46:51.200Z,101660.00
2022-07-29T01:49:23.765Z,101664.47
2022-07-29T01:51:59.478Z,101674.28
2022-07-29T01:54:32.728Z,101667.16
2022-07-29T01:57:02.411Z,101667.16
2022-07-29T01:59:35.571Z,101666.28
2022-07-29T02:02:04.899Z,101667.25
2022-07-29T02:04:35.659Z,101672.63
2022-07-29T02:07:07.896Z,101664.56
2022-07-29T02:09:37.626Z,101669.84
2022-07-29T02:12:08.369Z,101677.03
2022-07-29T02:14:41.612Z,101693.16
2022-07-29T02:17:10.105Z,101695.84
2022-07-29T02:19:40.485Z,101688.75
2022-07-29T02:22:08.840Z,101698.53
2022-07-29T02:24:39.334Z,101702.19
2022-07-29T02:27:09.476Z,101700.38
2022-07-29T02:29:41.302Z,101695.97
2022-07-29T02:32:11.438Z,101688.75
2022-07-29T02:34:41.228Z,101689.72
2022-07-29T02:37:11.371Z,101696.81
2022-07-29T02:39:41.158Z,101694.22
2022-07-29T02:42:12.245Z,101692.41
2022-07-29T02:44:41.669Z,101696.06
2022-07-29T02:47:15.925Z,101684.41
2022-07-29T02:49:53.537Z,101689.72
2022-07-29T02:52:26.605Z,101683.50
2022-07-29T02:54:58.981Z,101674.56
2022-07-29T02:57:35.982Z,101674.56
2022-07-29T03:00:29.359Z,101669.19
2022-07-29T03:03:00.619Z,101666.50
2022-07-29T03:05:29.614Z,101659.31
2022-07-29T03:08:00.614Z,101654.84
2022-07-29T03:10:29.397Z,101657.56
2022-07-29T03:12:59.180Z,101648.63
2022-07-29T03:15:29.348Z,101645.94
2022-07-29T03:17:57.793Z,101646.81
2022-07-29T03:20:26.257Z,101629.91
2022-07-29T03:22:54.242Z,101622.72
2022-07-29T03:25:22.918Z,101624.53
2022-07-29T03:27:51.251Z,101613.81
2022-07-29T03:30:22.145Z,101602.19
2022-07-29T03:32:52.689Z,101595.97
2022-07-29T03:35:21.553Z,101607.56
2022-07-29T03:37:49.550Z,101606.69
2022-07-29T03:40:21.959Z,101612.06
2022-07-29T03:42:53.188Z,101606.69
2022-07-29T03:45:22.692Z,101593.28
2022-07-29T03:48:00.424Z,101599.50
2022-07-29T03:50:30.608Z,101595.06
2022-07-29T03:52:59.177Z,101595.06
2022-07-29T03:55:28.660Z,101595.06
2022-07-29T03:57:58.898Z,101600.44
2022-07-29T04:00:28.856Z,101595.97
2022-07-29T04:02:58.624Z,101588.81
2022-07-29T04:05:26.649Z,101586.16
2022-07-29T04:07:54.555Z,101587.00
2022-07-29T04:10:31.573Z,101592.38
2022-07-29T04:13:00.324Z,101587.97
2022-07-29T04:15:31.490Z,101582.59
2022-07-29T04:18:01.357Z,101587.09
2022-07-29T04:20:29.525Z,101596.03
2022-07-29T04:22:57.441Z,101596.88
2022-07-29T04:25:25.438Z,101597.00
2022-07-29T04:28:02.116Z,101597.84
2022-07-29T04:30:30.858Z,101617.53
2022-07-29T04:32:58.973Z,101616.75
2022-07-29T04:35:28.634Z,101621.19
2022-07-29T04:37:56.597Z,101618.50
2022-07-29T04:40:25.073Z,101623.00
2022-07-29T04:42:53.009Z,101628.28
2022-07-29T04:45:22.957Z,101620.22
2022-07-29T04:47:51.065Z,101615.81
2022-07-29T04:50:19.127Z,101620.22
2022-07-29T04:52:48.486Z,101621.19
2022-07-29T04:55:16.415Z,101619.34
2022-07-29T04:57:44.329Z,101617.53
2022-07-29T05:00:13.022Z,101615.81
2022-07-29T05:02:41.073Z,101616.66
2022-07-29T05:05:09.638Z,101617.53
2022-07-29T05:07:37.554Z,101608.59
2022-07-29T05:10:07.892Z,101611.19
2022-07-29T05:12:36.019Z,101622.81
2022-07-29T05:15:03.956Z,101631.81
2022-07-29T05:17:31.865Z,101638.94
2022-07-29T05:19:59.878Z,101645.25
2022-07-29T05:22:27.758Z,101667.72
2022-07-29T05:24:55.799Z,101670.41
2022-07-29T05:27:25.112Z,101671.38
2022-07-29T05:29:53.201Z,101680.28
2022-07-29T05:32:21.210Z,101668.69
2022-07-29T05:34:51.278Z,101681.25
2022-07-29T05:37:20.469Z,101671.38
2022-07-29T05:39:56.975Z,101675.00
2022-07-29T05:42:27.561Z,101676.72
2022-07-29T05:44:55.717Z,101671.38
2022-07-29T05:47:24.056Z,101659.75
2022-07-29T05:49:52.552Z,101656.22
2022-07-29T05:52:20.870Z,101664.16
2022-07-29T05:54:49.316Z,101674.06
2022-07-29T05:57:18.254Z,101669.53
2022-07-29T05:59:48.094Z,101669.63
2022-07-29T06:02:16.524Z,101672.31
2022-07-29T06:04:45.035Z,101673.19
2022-07-29T06:07:13.361Z,101668.75
2022-07-29T06:09:41.279Z,101671.44
2022-07-29T06:12:09.404Z,101659.94
2022-07-29T06:14:38.922Z,101662.63
2022-07-29T06:17:08.311Z,101661.81
2022-07-29T06:19:37.316Z,101660.97
2022-07-29T06:22:05.583Z,101661.81
2022-07-29T06:24:33.633Z,101662.63
2022-07-29T06:27:01.578Z,101664.44
2022-07-29T06:29:29.450Z,101675.09
2022-07-29T06:31:57.482Z,101659.06
2022-07-29T06:34:26.779Z,101660.88
2022-07-29T06:36:54.782Z,101661.81
2022-07-29T06:39:22.904Z,101660.97
2022-07-29T06:41:52.406Z,101660.09
2022-07-29T06:44:20.794Z,101652.91
2022-07-29T06:46:50.184Z,101654.72
2022-07-29T06:49:18.416Z,101654.72
2022-07-29T06:51:47.795Z,101652.91
2022-07-29T06:54:15.931Z,101652.03
2022-07-29T06:56:44.220Z,101648.31
2022-07-29T06:59:14.163Z,101645.69
2022-07-29T07:01:44.552Z,101651.97
2022-07-29T07:04:13.472Z,101655.53
2022-07-29T07:06:41.874Z,101654.56
2022-07-29T07:09:11.224Z,101661.66
2022-07-29T07:11:39.218Z,101658.97
2022-07-29T07:14:07.241Z,101657.13
2022-07-29T07:16:35.553Z,101660.63
2022-07-29T07:19:03.558Z,101660.63
2022-07-29T07:21:31.910Z,101661.47
2022-07-29T07:24:00.253Z,101656.97
2022-07-29T07:26:30.049Z,101657.81
2022-07-29T07:28:58.888Z,101656.97
2022-07-29T07:31:27.082Z,101662.22
2022-07-29T07:33:55.271Z,101662.22
2022-07-29T07:36:23.769Z,101656.84
2022-07-29T07:38:51.984Z,101651.47
2022-07-29T07:41:19.967Z,101651.41
2022-07-29T07:43:49.297Z,101654.19
2022-07-29T07:46:17.710Z,101663.03
2022-07-29T07:48:45.853Z,101666.69
2022-07-29T07:51:14.025Z,101672.06
2022-07-29T07:53:42.008Z,101665.72
2022-07-29T07:56:11.911Z,101665.72
2022-07-29T07:58:40.715Z,101671.09
2022-07-29T08:01:10.711Z,101671.09
2022-07-29T08:03:39.871Z,101665.72
2022-07-29T08:06:08.008Z,101665.59
2022-07-29T08:08:36.011Z,101669.19
2022-07-29T08:11:08.971Z,101670.06
2022-07-29T08:13:38.673Z,101668.22
2022-07-29T08:16:13.602Z,101677.16
2022-07-29T08:18:45.883Z,101673.59
2022-07-29T08:21:14.759Z,101671.88
2022-07-29T08:23:56.168Z,101670.97
2022-07-29T08:26:27.832Z,101671.09
2022-07-29T08:28:55.819Z,101672.97
2022-07-29T08:31:23.791Z,101674.81
2022-07-29T08:33:53.099Z,101668.56
2022-07-29T08:36:22.289Z,101669.72
2022-07-29T08:38:50.585Z,101670.84
2022-07-29T08:41:19.987Z,101679.00
2022-07-29T08:43:48.214Z,101673.81
2022-07-29T08:46:16.260Z,101681.88
2022-07-29T08:48:44.561Z,101694.34
2022-07-29T08:51:18.263Z,101687.13
2022-07-29T08:53:49.285Z,101692.44
2022-07-29T08:56:18.937Z,101694.16
2022-07-29T08:58:50.638Z,101695.03
2022-07-29T09:01:35.911Z,101699.44
2022-07-29T09:04:06.912Z,101701.19
2022-07-29T09:06:39.042Z,101703.88
2022-07-29T09:09:07.317Z,101711.94
2022-07-29T09:11:35.829Z,101713.66
2022-07-29T09:14:03.773Z,101708.28
2022-07-29T09:16:53.118Z,101706.34
2022-07-29T09:19:27.935Z,101698.41
2022-07-29T09:22:02.985Z,101705.50
2022-07-29T09:24:43.290Z,101705.50
2022-07-29T09:27:23.096Z,101701.94
2022-07-29T09:30:01.638Z,101700.13
2022-07-29T09:32:30.559Z,101700.97
2022-07-29T09:35:18.566Z,101707.16
2022-07-29T09:37:48.670Z,101699.09
2022-07-29T09:40:19.153Z,101705.31
2022-07-29T09:42:47.665Z,101700.81
2022-07-29T09:45:29.270Z,101695.44
2022-07-29T09:48:00.043Z,101702.63
2022-07-29T09:50:38.021Z,101703.50
2022-07-29T09:53:07.545Z,101705.22
2022-07-29T09:55:47.766Z,101703.44
2022-07-29T09:58:19.646Z,101703.44
2022-07-29T10:00:49.236Z,101705.16
2022-07-29T10:03:18.419Z,101706.97
2022-07-29T10:05:47.893Z,101710.53
2022-07-29T10:08:27.452Z,101708.69
2022-07-29T10:11:14.231Z,101697.00
2022-07-29T10:13:43.590Z,101698.81
2022-07-29T10:16:11.928Z,101696.06
2022-07-29T10:18:43.231Z,101688.88
2022-07-29T10:21:35.003Z,101692.41
2022-07-29T10:24:01.732Z,101696.81
2022-07-29T10:26:31.105Z,101698.53
2022-07-29T10:28:59.009Z,101695.00
2022-07-29T10:31:35.759Z,101689.53
2022-07-29T10:34:11.007Z,101698.38
2022-07-29T10:36:56.754Z,101691.28
2022-07-29T10:39:44.499Z,101693.97
2022-07-29T10:42:33.415Z,101698.38
2022-07-29T10:45:04.223Z,101701.91
2022-07-29T10:47:35.412Z,101696.53
2022-07-29T10:50:05.297Z,101697.41
2022-07-29T10:52:57.256Z,101689.34
2022-07-29T10:55:37.694Z,101693.78
2022-07-29T10:58:20.889Z,101698.19
2022-07-29T11:00:50.501Z,101699.06
2022-07-29T11:03:50.562Z,101700.88
2022-07-29T11:06:27.982Z,101695.41
2022-07-29T11:09:20.350Z,101701.75
2022-07-29T11:11:54.981Z,101701.63
2022-07-29T11:15:00.270Z,101701.63
2022-07-29T11:17:46.881Z,101698.03
2022-07-29T11:20:51.033Z,101700.72
2022-07-29T11:23:21.056Z,101696.25
2022-07-29T11:26:18.604Z,101698.03
2022-07-29T11:28:54.285Z,101705.13
2022-07-29T11:31:36.020Z,101696.19
2022-07-29T11:34:28.056Z,101691.69
2022-07-29T11:37:27.988Z,101689.84
2022-07-29T11:40:20.208Z,101687.16
2022-07-29T11:42:51.962Z,101688.88
2022-07-29T11:45:44.152Z,101684.38
2022-07-29T11:48:29.821Z,101682.59
2022-07-29T11:51:01.513Z,101683.44
2022-07-29T11:53:32.465Z,101683.44
2022-07-29T11:56:02.762Z,101687.06
2022-07-29T11:58:32.017Z,101678.06
2022-07-29T12:01:04.616Z,101681.63
2022-07-29T12:03:36.008Z,101680.66
2022-07-29T12:06:07.473Z,101683.34
2022-07-29T12:08:43.522Z,101678.94
2022-07-29T12:11:20.607Z,101672.59
2022-07-29T12:13:50.521Z,101674.31
2022-07-29T12:16:25.809Z,101685.06
2022-07-29T12:18:58.656Z,101672.50
2022-07-29T12:21:28.927Z,101678.75
2022-07-29T12:24:03.409Z,101677.78
2022-07-29T12:26:40.374Z,101669.72
2022-07-29T12:29:11.597Z,101677.78
2022-07-29T12:31:45.964Z,101670.59
2022-07-29T12:34:15.808Z,101670.59
2022-07-29T12:36:44.999Z,101674.06
2022-07-29T12:39:13.640Z,101669.53
2022-07-29T12:41:41.659Z,101670.41
2022-07-29T12:44:09.764Z,101674.06
2022-07-29T12:46:37.797Z,101669.63
2022-07-29T12:49:09.273Z,101666.94
2022-07-29T12:51:40.684Z,101665.09
2022-07-29T12:54:11.548Z,101663.31
2022-07-29T12:56:44.321Z,101658.88
2022-07-29T12:59:17.609Z,101654.34
2022-07-29T13:01:48.095Z,101651.66
2022-07-29T13:04:28.913Z,101655.13
2022-07-29T13:07:04.611Z,101656.09
2022-07-29T13:09:40.564Z,101648.91
2022-07-29T13:12:11.106Z,101655.25
2022-07-29T13:14:40.585Z,101649.75
2022-07-29T13:17:11.085Z,101652.44
2022-07-29T13:19:42.784Z,101647.94
2022-07-29T13:22:12.142Z,101651.47
2022-07-29T13:24:54.072Z,101655.03
2022-07-29T13:27:23.887Z,101654.16
2022-07-29T13:29:53.421Z,101649.66
2022-07-29T13:32:28.225Z,101651.47
2022-07-29T13:34:59.358Z,101657.72
2022-07-29T13:37:30.538Z,101652.34
2022-07-29T13:39:58.882Z,101652.34
2022-07-29T13:42:28.032Z,101651.41
2022-07-29T13:44:56.012Z,101653.22
2022-07-29T13:47:32.395Z,101655.81
2022-07-29T13:50:02.964Z,101647.75
2022-07-29T13:52:31.150Z,101639.69
2022-07-29T13:54:59.434Z,101640.56
2022-07-29T13:57:27.710Z,101638.72
2022-07-29T13:59:55.708Z,101643.25
2022-07-29T14:04:54.986Z,101644.09
2022-07-29T14:07:24.950Z,101633.34
2022-07-29T14:09:53.080Z,101630.66
2022-07-29T14:12:21.084Z,101636.03
2022-07-29T14:17:17.161Z,101633.34
2022-07-29T14:19:45.264Z,101625.28
2022-07-29T14:22:13.488Z,101630.66
2022-07-29T14:24:43.303Z,101638.66
2022-07-29T14:27:11.312Z,101627.00
2022-07-29T14:29:39.527Z,101627.00
2022-07-29T14:32:08.889Z,101632.31
2022-07-29T14:34:36.897Z,101617.16
2022-07-29T14:37:06.554Z,101623.38
2022-07-29T14:39:39.300Z,101618.00
2022-07-29T14:42:12.860Z,101623.38
2022-07-29T14:44:42.414Z,101618.00
2022-07-29T14:47:11.310Z,101620.59
2022-07-29T14:49:39.303Z,101617.78
2022-07-29T14:52:07.369Z,101615.22
2022-07-29T14:54:35.443Z,101622.31
2022-07-29T14:57:03.403Z,101616.94
2022-07-29T14:59:32.720Z,101614.16
2022-07-29T15:02:01.474Z,101618.56
2022-07-29T15:04:29.873Z,101615.88
2022-07-29T15:06:57.820Z,101619.53
2022-07-29T15:09:25.798Z,101621.25
2022-07-29T15:11:53.910Z,101616.75
2022-07-29T15:14:21.845Z,101618.56
2022-07-29T15:16:52.849Z,101624.91
2022-07-29T15:19:21.269Z,101622.22
2022-07-29T15:21:49.311Z,101623.16
2022-07-29T15:24:18.751Z,101622.22
2022-07-29T15:26:47.274Z,101619.53
2022-07-29T15:29:15.619Z,101616.00
2022-07-29T15:31:43.797Z,101624.81
2022-07-29T15:34:13.203Z,101619.44
2022-07-29T15:36:52.128Z,101619.44
2022-07-29T15:39:21.543Z,101615.03
2022-07-29T15:41:49.990Z,101619.53
2022-07-29T15:44:17.987Z,101616.06
2022-07-29T15:47:03.194Z,101611.56
2022-07-29T15:49:47.163Z,101613.38
2022-07-29T15:52:19.030Z,101608.97
2022-07-29T15:54:53.511Z,101618.88
2022-07-29T15:57:22.171Z,101613.50
2022-07-29T15:59:50.130Z,101605.50
2022-07-29T16:02:18.096Z,101616.19
2022-07-29T16:04:47.546Z,101613.50
2022-07-29T16:07:15.871Z,101617.03
2022-07-29T16:09:44.841Z,101616.94
2022-07-29T16:12:17.443Z,101624.91
2022-07-29T16:14:46.227Z,101627.63
2022-07-29T16:17:15.216Z,101618.56
2022-07-29T16:19:44.028Z,101620.28
2022-07-29T16:22:13.555Z,101621.09
2022-07-29T16:24:41.759Z,101624.53
2022-07-29T16:27:10.255Z,101628.88
2022-07-29T16:29:38.133Z,101623.50
2022-07-29T16:32:06.917Z,101621.53
2022-07-29T16:34:34.989Z,101617.94
2022-07-29T16:37:03.389Z,101622.34
2022-07-29T16:39:32.884Z,101619.66
2022-07-29T16:42:03.070Z,101619.53
2022-07-29T16:44:33.090Z,101622.22
2022-07-29T16:47:02.183Z,101623.00
2022-07-29T16:49:31.296Z,101624.91
2022-07-29T16:51:59.254Z,101623.31
2022-07-29T16:54:27.458Z,101617.94
2022-07-29T16:56:57.143Z,101617.06
2022-07-29T16:59:25.369Z,101617.13
2022-07-29T17:01:53.326Z,101623.31
2022-07-29T17:04:22.950Z,101620.63
2022-07-29T17:06:51.054Z,101623.31
2022-07-29T17:09:19.041Z,101631.25
2022-07-29T17:11:54.863Z,101627.72
2022-07-29T17:14:26.105Z,101627.59
2022-07-29T17:17:00.021Z,101631.25
2022-07-29T17:19:30.558Z,101637.50
2022-07-29T17:22:07.065Z,101634.75
2022-07-29T17:24:40.869Z,101642.81
2022-07-29T17:27:09.690Z,101636.53
2022-07-29T17:29:39.693Z,101647.28
2022-07-29T17:32:09.094Z,101646.44
2022-07-29T17:34:37.306Z,101644.59
2022-07-29T17:37:05.949Z,101648.19
2022-07-29T17:39:35.520Z,101655.28
2022-07-29T17:42:03.873Z,101654.50
2022-07-29T17:44:32.498Z,101654.41
2022-07-29T17:47:06.198Z,101656.25
2022-07-29T17:49:36.261Z,101654.50
2022-07-29T17:52:05.848Z,101664.31
2022-07-29T17:54:33.747Z,101663.41
2022-07-29T17:57:01.982Z,101665.25
2022-07-29T17:59:30.070Z,101667.94
2022-07-29T18:01:58.087Z,101653.63
2022-07-29T18:04:28.680Z,101669.78
2022-07-29T18:06:56.913Z,101664.38
2022-07-29T18:09:25.078Z,101662.66
2022-07-29T18:11:52.990Z,101666.22
2022-07-29T18:14:20.969Z,101671.59
2022-07-29T18:16:48.930Z,101671.59
2022-07-29T18:19:17.203Z,101666.22
2022-07-29T18:21:54.651Z,101672.38
2022-07-29T18:24:25.605Z,101676.00
2022-07-29T18:26:54.038Z,101669.69
2022-07-29T18:29:22.035Z,101673.25
2022-07-29T18:31:50.190Z,101668.72
2022-07-29T18:34:18.231Z,101671.41
2022-07-29T18:36:47.799Z,101671.31
2022-07-29T18:39:21.183Z,101667.75
2022-07-29T18:41:51.283Z,101669.69
2022-07-29T18:44:21.854Z,101672.28
2022-07-29T18:46:50.955Z,101670.56
2022-07-29T18:49:19.120Z,101670.44
2022-07-29T18:51:48.936Z,101669.59
2022-07-29T18:54:18.329Z,101673.13
2022-07-29T18:56:47.446Z,101669.59
2022-07-29T18:59:19.627Z,101670.44
2022-07-29T19:01:48.513Z,101672.28
2022-07-29T19:04:17.071Z,101680.34
2022-07-29T19:06:45.789Z,101677.75
2022-07-29T19:09:16.252Z,101679.47
2022-07-29T19:11:44.443Z,101679.47
2022-07-29T19:14:12.546Z,101682.19
2022-07-29T19:16:40.504Z,101688.41
2022-07-29T19:19:08.689Z,101689.38
2022-07-29T19:21:36.647Z,101690.25
2022-07-29T19:24:07.716Z,101690.25
2022-07-29T19:26:43.916Z,101690.31
2022-07-29T19:29:11.922Z,101690.41
2022-07-29T19:31:40.083Z,101689.44
2022-07-29T19:34:08.499Z,101690.41
2022-07-29T19:36:36.609Z,101707.41
2022-07-29T19:39:04.755Z,101696.66
2022-07-29T19:41:33.194Z,101711.06
2022-07-29T19:44:02.607Z,101710.22
2022-07-29T19:46:30.643Z,101720.97
2022-07-29T19:48:58.654Z,101713.88
2022-07-29T19:51:26.997Z,101721.03
2022-07-29T19:53:54.976Z,101724.63
2022-07-29T19:56:25.308Z,101720.19
2022-07-29T19:58:53.720Z,101727.38
2022-07-29T20:01:24.722Z,101730.06
2022-07-29T20:03:53.854Z,101735.56
2022-07-29T20:06:23.071Z,101738.25
2022-07-29T20:08:55.403Z,101739.22
2022-07-29T20:11:26.513Z,101741.91
2022-07-29T20:13:54.530Z,101745.53
2022-07-29T20:16:25.439Z,101744.66
2022-07-29T20:18:53.539Z,101754.56
2022-07-29T20:21:21.450Z,101749.19
2022-07-29T20:23:49.420Z,101753.69
2022-07-29T20:26:18.255Z,101752.84
2022-07-29T20:28:49.267Z,101751.06
2022-07-29T20:31:20.483Z,101756.44
2022-07-29T20:33:50.090Z,101759.94
2022-07-29T20:36:18.087Z,101760.91
2022-07-29T20:38:46.080Z,101764.34
2022-07-29T20:41:14.884Z,101766.28
2022-07-29T20:43:43.285Z,101770.69
2022-07-29T20:46:11.284Z,101764.53
2022-07-29T20:48:39.801Z,101762.72
2022-07-29T20:51:09.297Z,101762.63
2022-07-29T20:53:38.766Z,101764.34
2022-07-29T20:56:07.531Z,101766.28
2022-07-29T20:58:36.527Z,101771.66
2022-07-29T21:01:04.973Z,101780.66
2022-07-29T21:03:33.548Z,101769.13
2022-07-29T21:06:01.754Z,101772.78
2022-07-29T21:08:31.096Z,101771.94
2022-07-29T21:10:59.034Z,101772.00
2022-07-29T21:13:27.044Z,101776.63
2022-07-29T21:15:59.059Z,101780.16
2022-07-29T21:18:32.607Z,101778.53
2022-07-29T21:21:01.903Z,101784.84
2022-07-29T21:23:31.691Z,101781.38
2022-07-29T21:26:00.290Z,101787.72
2022-07-29T21:28:27.373Z,101786.97
2022-07-29T21:30:55.736Z,101791.44
2022-07-29T21:33:23.803Z,101790.56
2022-07-29T21:38:41.153Z,101787.13
2022-07-29T21:41:10.799Z,101787.13
2022-07-29T21:43:41.696Z,101782.72
2022-07-29T21:46:10.570Z,101781.81
2022-07-29T21:48:43.858Z,101778.28
2022-07-29T21:51:12.575Z,101782.78
2022-07-29T21:53:41.897Z,101780.97
2022-07-29T21:56:13.051Z,101789.03
2022-07-29T21:58:43.287Z,101781.06
2022-07-29T22:01:11.332Z,101781.94
2022-07-29T22:03:39.444Z,101777.50
2022-07-29T22:06:07.598Z,101782.97
2022-07-29T22:08:35.559Z,101773.06
2022-07-29T22:11:04.818Z,101765.09
2022-07-29T22:13:32.804Z,101764.13
2022-07-29T22:16:05.138Z,101765.97
2022-07-29T22:18:33.006Z,101772.31
2022-07-29T22:21:00.979Z,101768.66
2022-07-29T22:23:28.885Z,101762.41
2022-07-29T22:25:57.269Z,101762.41
2022-07-29T22:28:26.681Z,101757.03
2022-07-29T22:30:54.653Z,101749.94
2022-07-29T22:33:23.975Z,101757.91
2022-07-29T22:35:51.915Z,101752.63
2022-07-29T22:38:19.848Z,101751.78
2022-07-29T22:40:50.755Z,101753.66
2022-07-29T22:43:18.967Z,101758.28
2022-07-29T22:45:50.498Z,101760.06
2022-07-29T22:48:20.165Z,101754.81
2022-07-29T22:50:48.148Z,101753.06
2022-07-29T22:53:16.036Z,101750.38
2022-07-29T22:55:43.970Z,101752.22
2022-07-29T22:58:12.482Z,101754.03
2022-07-29T23:00:41.230Z,101757.66
2022-07-29T23:03:10.545Z,101754.97
2022-07-29T23:05:38.484Z,101744.22
2022-07-29T23:08:06.453Z,101759.41
2022-07-29T23:10:34.540Z,101752.28
2022-07-29T23:13:02.412Z,101747.88
2022-07-29T23:15:30.331Z,101746.16
2022-07-29T23:17:58.786Z,101744.44
2022-07-29T23:20:28.421Z,101745.28
2022-07-29T23:22:56.391Z,101749.00
2022-07-29T23:25:24.385Z,101755.25
2022-07-29T23:27:52.394Z,101753.53
2022-07-29T23:30:20.535Z,101758.97
2022-07-29T23:32:48.506Z,101755.50
2022-07-29T23:35:16.498Z,101752.81
2022-07-29T23:37:45.956Z,101749.34
2022-07-29T23:40:14.922Z,101751.16
2022-07-29T23:42:44.067Z,101751.28
2022-07-29T23:45:13.930Z,101754.91
2022-07-29T23:47:42.683Z,101752.25
2022-07-29T23:50:13.161Z,101755.84
2022-07-29T23:52:41.923Z,101755.94
2022-07-29T23:55:38.034Z,101756.81
2022-07-29T23:58:00.069Z,101753.25
